createdAt,value
2019-02-26T00:01:04.467Z,15.60
2019-02-26T00:03:33.230Z,18.63
2019-02-26T00:06:03.658Z,15.87
2019-02-26T00:08:33.345Z,16.20
2019-02-26T00:11:01.174Z,16.17
2019-02-26T00:13:31.946Z,16.40
2019-02-26T00:16:03.139Z,17.10
2019-02-26T00:18:29.263Z,16.67
2019-02-26T00:20:59.000Z,17.13
2019-02-26T00:23:28.025Z,16.30
2019-02-26T00:25:55.911Z,15.00
2019-02-26T00:28:23.602Z,14.57
2019-02-26T00:30:51.272Z,16.70
2019-02-26T00:33:21.480Z,13.87
2019-02-26T00:35:50.163Z,15.73
2019-02-26T00:38:19.784Z,14.93
2019-02-26T00:40:47.356Z,13.80
2019-02-26T00:43:15.031Z,15.27
2019-02-26T00:45:42.713Z,17.47
2019-02-26T00:48:10.442Z,13.80
2019-02-26T00:50:39.788Z,13.30
2019-02-26T00:53:07.628Z,15.30
2019-02-26T00:55:37.370Z,13.00
2019-02-26T00:58:05.925Z,14.03
2019-02-26T01:00:35.446Z,14.93
2019-02-26T01:03:03.987Z,16.33
2019-02-26T01:05:34.036Z,12.47
2019-02-26T01:08:02.223Z,13.73
2019-02-26T01:10:29.856Z,14.27
2019-02-26T01:12:58.683Z,14.43
2019-02-26T01:15:27.158Z,14.47
2019-02-26T01:17:56.625Z,18.23
2019-02-26T01:20:25.519Z,14.07
2019-02-26T01:22:53.854Z,16.10
2019-02-26T01:25:22.963Z,13.80
2019-02-26T01:27:53.100Z,15.60
2019-02-26T01:30:23.524Z,14.00
2019-02-26T01:32:49.682Z,12.17
2019-02-26T01:35:17.357Z,15.30
2019-02-26T01:37:45.082Z,13.43
2019-02-26T01:40:15.606Z,12.27
2019-02-26T01:42:47.089Z,13.77
2019-02-26T01:45:12.730Z,13.80
2019-02-26T01:47:42.583Z,11.77
2019-02-26T01:50:11.129Z,14.47
2019-02-26T01:52:39.715Z,14.70
2019-02-26T01:55:09.151Z,13.50
2019-02-26T01:57:36.813Z,15.37
2019-02-26T02:00:15.675Z,13.83
2019-02-26T02:02:43.382Z,13.63
2019-02-26T02:05:11.221Z,14.13
2019-02-26T02:07:38.881Z,14.83
2019-02-26T02:10:07.297Z,14.17
2019-02-26T02:12:36.840Z,14.10
2019-02-26T02:15:05.619Z,15.93
2019-02-26T02:17:33.926Z,14.60
2019-02-26T02:20:07.711Z,12.57
2019-02-26T02:22:33.088Z,12.60
2019-02-26T02:25:02.825Z,14.93
2019-02-26T02:27:33.148Z,11.27
2019-02-26T02:29:59.906Z,11.93
2019-02-26T02:32:29.558Z,11.00
2019-02-26T02:35:00.627Z,14.37
2019-02-26T02:37:27.461Z,13.13
2019-02-26T02:39:56.347Z,14.23
2019-02-26T02:42:24.381Z,11.83
2019-02-26T02:44:52.779Z,14.20
2019-02-26T02:47:20.539Z,12.70
2019-02-26T02:49:48.223Z,15.57
2019-02-26T02:52:15.907Z,13.23
2019-02-26T02:54:44.877Z,12.80
2019-02-26T02:57:13.021Z,12.83
2019-02-26T02:59:42.318Z,12.93
2019-02-26T03:02:12.096Z,11.57
2019-02-26T03:04:39.599Z,13.47
2019-02-26T03:07:07.631Z,11.67
2019-02-26T03:09:37.743Z,12.30
2019-02-26T03:12:04.788Z,14.10
2019-02-26T03:14:33.842Z,13.90
2019-02-26T03:17:01.924Z,14.83
2019-02-26T03:19:32.044Z,12.07
2019-02-26T03:21:59.095Z,11.93
2019-02-26T03:24:28.884Z,13.07
2019-02-26T03:26:57.876Z,11.63
2019-02-26T03:29:25.568Z,14.97
2019-02-26T03:31:55.329Z,11.33
2019-02-26T03:34:25.388Z,13.93
2019-02-26T03:36:52.260Z,11.77
2019-02-26T03:39:19.906Z,13.30
2019-02-26T03:41:48.636Z,14.07
2019-02-26T03:44:17.030Z,13.00
2019-02-26T03:46:44.718Z,12.33
2019-02-26T03:49:12.426Z,13.57
2019-02-26T03:51:40.104Z,12.60
2019-02-26T03:54:07.768Z,13.10
2019-02-26T03:56:35.514Z,14.27
2019-02-26T03:59:03.990Z,14.77
2019-02-26T04:01:32.945Z,11.03
2019-02-26T04:04:02.527Z,11.63
2019-02-26T04:06:30.681Z,10.87
2019-02-26T04:09:01.357Z,12.73
2019-02-26T04:11:29.029Z,12.07
2019-02-26T04:13:56.785Z,13.47
2019-02-26T04:16:24.505Z,12.23
2019-02-26T04:18:52.185Z,11.77
2019-02-26T04:21:21.120Z,11.80
2019-02-26T04:23:50.215Z,12.60
2019-02-26T04:27:02.582Z,14.47
2019-02-26T04:30:13.070Z,13.87
2019-02-26T04:33:09.596Z,13.10
2019-02-26T04:36:20.311Z,11.87
2019-02-26T04:39:47.307Z,12.50
2019-02-26T04:42:56.325Z,13.53
2019-02-26T04:46:14.120Z,11.90
2019-02-26T04:48:41.820Z,14.67
2019-02-26T04:51:12.635Z,13.50
2019-02-26T04:53:40.885Z,11.97
2019-02-26T04:56:12.786Z,15.57
2019-02-26T04:58:40.378Z,11.57
2019-02-26T05:01:09.893Z,12.43
2019-02-26T05:03:37.157Z,13.40
2019-02-26T05:06:07.394Z,13.30
2019-02-26T05:08:35.667Z,14.17
2019-02-26T05:11:03.737Z,16.27
2019-02-26T05:13:32.629Z,12.87
2019-02-26T05:16:00.877Z,13.13
2019-02-26T05:18:31.599Z,13.27
2019-02-26T05:20:59.295Z,15.17
2019-02-26T05:23:30.408Z,15.00
2019-02-26T05:26:02.863Z,14.90
2019-02-26T05:28:26.519Z,12.77
2019-02-26T05:30:54.211Z,13.50
2019-02-26T05:33:24.846Z,16.20
2019-02-26T05:35:52.355Z,14.33
2019-02-26T05:38:20.086Z,16.30
2019-02-26T05:40:50.053Z,14.90
2019-02-26T05:43:17.227Z,13.47
2019-02-26T05:45:44.916Z,15.60
2019-02-26T05:48:15.035Z,16.13
2019-02-26T05:50:44.574Z,16.83
2019-02-26T05:53:13.434Z,15.47
2019-02-26T05:55:43.836Z,14.70
2019-02-26T05:58:15.177Z,16.57
2019-02-26T06:00:40.244Z,18.60
2019-02-26T06:03:09.689Z,15.23
2019-02-26T06:05:41.157Z,20.50
2019-02-26T06:08:07.001Z,20.30
2019-02-26T06:10:35.310Z,19.10
2019-02-26T06:13:05.009Z,21.30
2019-02-26T06:15:34.693Z,20.67
2019-02-26T06:18:02.345Z,20.53
2019-02-26T06:20:32.074Z,22.17
2019-02-26T06:23:00.614Z,20.73
2019-02-26T06:25:29.115Z,20.77
2019-02-26T06:27:56.821Z,20.63
2019-02-26T06:30:24.538Z,21.20
2019-02-26T06:32:52.204Z,19.97
2019-02-26T06:35:19.899Z,22.03
2019-02-26T06:37:47.621Z,19.70
2019-02-26T06:40:15.305Z,19.07
2019-02-26T06:42:43.008Z,19.77
2019-02-26T06:45:13.990Z,18.57
2019-02-26T06:47:41.259Z,20.03
2019-02-26T06:50:11.087Z,18.20
2019-02-26T06:52:40.354Z,18.43
2019-02-26T06:55:08.972Z,21.70
2019-02-26T06:57:50.791Z,17.33
2019-02-26T07:00:19.736Z,17.10
2019-02-26T07:02:46.556Z,19.40
2019-02-26T07:05:14.247Z,17.27
2019-02-26T07:07:42.190Z,16.73
2019-02-26T07:10:13.763Z,16.93
2019-02-26T07:12:43.027Z,15.87
2019-02-26T07:15:12.545Z,18.93
2019-02-26T07:17:41.174Z,17.67
2019-02-26T07:20:09.891Z,18.50
2019-02-26T07:22:39.269Z,18.10
2019-02-26T07:25:08.359Z,18.67
2019-02-26T07:27:38.327Z,16.67
2019-02-26T07:30:06.817Z,21.43
2019-02-26T07:32:36.055Z,15.67
2019-02-26T07:35:06.906Z,19.63
2019-02-26T07:37:36.294Z,18.07
2019-02-26T07:40:08.159Z,16.73
2019-02-26T07:42:37.261Z,20.73
2019-02-26T07:45:14.363Z,22.03
2019-02-26T07:47:36.396Z,18.40
2019-02-26T07:50:07.487Z,17.40
2019-02-26T07:52:35.779Z,16.33
2019-02-26T07:55:06.034Z,17.40
2019-02-26T07:57:33.395Z,15.93
2019-02-26T08:00:01.185Z,15.73
2019-02-26T08:02:32.069Z,20.13
2019-02-26T08:04:59.470Z,15.40
2019-02-26T08:07:28.517Z,19.23
2019-02-26T08:09:56.773Z,21.33
2019-02-26T08:12:24.476Z,21.33
2019-02-26T08:14:52.171Z,18.10
2019-02-26T08:17:19.861Z,18.70
2019-02-26T08:19:49.345Z,15.60
2019-02-26T08:22:24.689Z,19.43
2019-02-26T08:24:52.857Z,17.13
2019-02-26T08:27:21.577Z,15.20
2019-02-26T08:29:49.831Z,19.47
2019-02-26T08:32:21.066Z,15.13
2019-02-26T08:34:48.273Z,21.97
2019-02-26T08:37:16.048Z,17.03
2019-02-26T08:39:43.675Z,15.07
2019-02-26T08:42:11.427Z,14.83
2019-02-26T08:44:39.071Z,16.63
2019-02-26T08:47:11.177Z,15.37
2019-02-26T08:49:38.337Z,17.57
2019-02-26T08:52:05.825Z,16.37
2019-02-26T08:54:35.660Z,17.20
2019-02-26T08:57:02.961Z,15.10
2019-02-26T08:59:30.632Z,13.27
2019-02-26T09:01:58.326Z,16.30
2019-02-26T09:04:29.143Z,15.53
2019-02-26T09:06:57.643Z,16.50
2019-02-26T09:09:27.782Z,14.83
2019-02-26T09:11:58.003Z,15.57
2019-02-26T09:14:25.307Z,16.83
2019-02-26T09:16:54.942Z,14.10
2019-02-26T09:19:22.622Z,14.87
2019-02-26T09:21:52.415Z,14.67
2019-02-26T09:24:21.506Z,16.53
2019-02-26T09:26:49.396Z,18.47
2019-02-26T09:29:19.654Z,14.63
2019-02-26T09:31:48.312Z,16.13
2019-02-26T09:34:15.959Z,13.00
2019-02-26T09:36:45.826Z,11.93
2019-02-26T09:39:13.586Z,12.87
2019-02-26T09:41:43.355Z,12.13
2019-02-26T09:44:11.964Z,10.30
2019-02-26T09:46:41.915Z,11.17
2019-02-26T09:49:12.516Z,12.33
2019-02-26T09:51:42.981Z,10.03
2019-02-26T09:54:13.204Z,9.78
2019-02-26T09:56:41.622Z,10.20
2019-02-26T09:59:10.257Z,10.18
2019-02-26T10:01:40.758Z,9.75
2019-02-26T10:04:08.378Z,9.30
2019-02-26T10:06:37.934Z,8.88
2019-02-26T10:09:05.752Z,10.72
2019-02-26T10:11:33.418Z,8.40
2019-02-26T10:14:02.716Z,8.70
2019-02-26T10:16:31.356Z,10.43
2019-02-26T10:19:00.134Z,7.65
2019-02-26T10:21:27.866Z,9.55
2019-02-26T10:23:56.857Z,10.68
2019-02-26T10:26:26.295Z,9.05
2019-02-26T10:29:02.255Z,12.53
2019-02-26T10:31:27.366Z,10.58
2019-02-26T10:33:53.969Z,10.00
2019-02-26T10:36:21.659Z,8.85
2019-02-26T10:38:50.938Z,9.13
2019-02-26T10:41:21.121Z,8.05
2019-02-26T10:43:48.470Z,9.20
2019-02-26T10:46:16.155Z,7.33
2019-02-26T10:48:45.542Z,9.88
2019-02-26T10:51:16.635Z,6.08
2019-02-26T10:53:42.900Z,7.25
2019-02-26T10:56:10.595Z,8.55
2019-02-26T10:58:38.425Z,7.95
2019-02-26T11:01:06.517Z,7.65
2019-02-26T11:03:37.947Z,7.17
2019-02-26T11:06:05.245Z,7.78
2019-02-26T11:08:35.096Z,7.42
2019-02-26T11:11:04.762Z,7.55
2019-02-26T11:13:32.390Z,7.20
2019-02-26T11:16:02.993Z,9.45
2019-02-26T11:18:30.409Z,11.83
2019-02-26T11:20:59.298Z,10.90
2019-02-26T11:23:30.958Z,12.68
2019-02-26T11:25:56.837Z,11.88
2019-02-26T11:28:27.264Z,12.30
2019-02-26T11:30:54.985Z,15.95
2019-02-26T11:33:23.686Z,13.95
2019-02-26T11:35:51.541Z,15.75
2019-02-26T11:38:21.536Z,18.42
2019-02-26T11:40:49.202Z,14.63
2019-02-26T11:43:19.871Z,12.47
2019-02-26T11:45:46.410Z,14.75
2019-02-26T11:48:14.102Z,14.87
2019-02-26T11:50:44.698Z,13.78
2019-02-26T11:53:11.482Z,14.35
2019-02-26T11:55:39.281Z,13.28
2019-02-26T11:58:09.986Z,15.03
2019-02-26T12:00:50.157Z,14.90
2019-02-26T12:03:16.711Z,15.13
2019-02-26T12:05:44.448Z,11.12
2019-02-26T12:08:14.461Z,13.38
2019-02-26T12:10:41.684Z,11.63
2019-02-26T12:13:09.514Z,12.95
2019-02-26T12:15:42.360Z,13.53
2019-02-26T12:18:09.901Z,12.55
2019-02-26T12:20:40.336Z,14.40
2019-02-26T12:23:08.093Z,13.28
2019-02-26T12:25:37.377Z,10.35
2019-02-26T12:28:07.613Z,12.00
2019-02-26T12:30:35.764Z,11.55
2019-02-26T12:33:04.129Z,11.25
2019-02-26T12:35:33.391Z,9.50
2019-02-26T12:38:16.949Z,10.20
2019-02-26T12:40:31.048Z,10.48
2019-02-26T12:43:01.833Z,11.85
2019-02-26T12:45:29.324Z,14.13
2019-02-26T12:47:58.222Z,12.82
2019-02-26T12:50:29.066Z,12.82
2019-02-26T12:52:57.032Z,12.43
2019-02-26T12:55:29.644Z,13.00
2019-02-26T12:57:56.568Z,14.40
2019-02-26T13:00:25.277Z,12.18
2019-02-26T13:02:52.954Z,13.28
2019-02-26T13:05:22.925Z,10.18
2019-02-26T13:07:50.135Z,11.15
2019-02-26T13:10:19.323Z,11.35
2019-02-26T13:12:52.931Z,9.83
2019-02-26T13:15:19.297Z,10.63
2019-02-26T13:17:48.922Z,13.43
2019-02-26T13:20:18.881Z,12.68
2019-02-26T13:22:46.575Z,15.40
2019-02-26T13:25:17.145Z,17.25
2019-02-26T13:27:47.331Z,17.17
2019-02-26T13:30:18.683Z,15.05
2019-02-26T13:33:05.341Z,11.78
2019-02-26T13:35:15.881Z,10.75
2019-02-26T13:37:43.551Z,12.82
2019-02-26T13:40:13.391Z,11.65
2019-02-26T13:42:41.120Z,16.57
2019-02-26T13:45:11.358Z,16.52
2019-02-26T13:47:39.137Z,15.38
2019-02-26T13:50:11.335Z,14.28
2019-02-26T13:52:39.134Z,12.20
2019-02-26T13:55:07.673Z,9.63
2019-02-26T13:57:35.428Z,13.38
2019-02-26T14:00:04.032Z,11.00
2019-02-26T14:02:31.720Z,10.85
2019-02-26T14:04:59.390Z,11.68
2019-02-26T14:07:27.087Z,13.38
2019-02-26T14:09:54.779Z,13.65
2019-02-26T14:12:22.780Z,12.35
2019-02-26T14:14:50.450Z,12.23
2019-02-26T14:17:18.233Z,13.58
2019-02-26T14:19:45.935Z,11.70
2019-02-26T14:22:14.236Z,11.40
2019-02-26T14:24:41.897Z,12.50
2019-02-26T14:27:09.629Z,12.55
2019-02-26T14:29:37.340Z,11.97
2019-02-26T14:32:05.053Z,13.50
2019-02-26T14:34:32.745Z,9.30
2019-02-26T14:37:00.440Z,9.25
2019-02-26T14:39:28.081Z,11.90
2019-02-26T14:41:55.740Z,10.82
2019-02-26T14:44:23.439Z,10.18
2019-02-26T14:46:51.137Z,8.60
2019-02-26T14:49:19.034Z,8.83
2019-02-26T14:51:46.805Z,8.63
2019-02-26T14:54:14.538Z,9.18
2019-02-26T14:56:42.267Z,9.23
2019-02-26T14:59:09.978Z,7.83
2019-02-26T15:01:37.919Z,10.60
2019-02-26T15:04:05.615Z,8.80
2019-02-26T15:06:33.329Z,8.25
2019-02-26T15:09:00.976Z,10.93
2019-02-26T15:11:28.707Z,11.10
2019-02-26T15:13:56.480Z,11.33
2019-02-26T15:16:24.234Z,11.48
2019-02-26T15:18:51.952Z,10.35
2019-02-26T15:21:20.792Z,10.03
2019-02-26T15:23:50.327Z,9.15
2019-02-26T15:26:19.717Z,9.85
2019-02-26T15:28:49.009Z,9.70
2019-02-26T15:31:16.984Z,8.13
2019-02-26T15:33:44.657Z,7.55
2019-02-26T15:36:12.380Z,8.48
2019-02-26T15:38:40.386Z,8.90
2019-02-26T15:41:08.137Z,7.62
2019-02-26T15:43:35.813Z,6.58
2019-02-26T15:46:03.587Z,8.05
2019-02-26T15:48:31.311Z,12.68
2019-02-26T15:50:59.125Z,13.90
2019-02-26T15:53:27.105Z,10.18
2019-02-26T15:55:59.136Z,8.65
2019-02-26T15:58:24.314Z,7.90
2019-02-26T16:00:53.266Z,9.75
2019-02-26T16:03:20.925Z,11.50
2019-02-26T16:05:48.949Z,8.90
2019-02-26T16:08:21.662Z,11.20
2019-02-26T16:10:49.489Z,10.28
2019-02-26T16:13:17.207Z,18.40
2019-02-26T16:15:44.908Z,11.68
2019-02-26T16:18:12.747Z,12.73
2019-02-26T16:20:40.393Z,10.97
2019-02-26T16:23:08.223Z,10.67
2019-02-26T16:25:35.900Z,11.80
2019-02-26T16:28:03.668Z,9.30
2019-02-26T16:30:31.417Z,12.97
2019-02-26T16:32:59.248Z,9.23
2019-02-26T16:35:27.016Z,13.97
2019-02-26T16:37:54.805Z,10.83
2019-02-26T16:40:22.547Z,11.27
2019-02-26T16:42:50.191Z,11.80
2019-02-26T16:45:19.429Z,11.73
2019-02-26T16:47:48.733Z,12.10
2019-02-26T16:50:18.428Z,14.57
2019-02-26T16:52:46.173Z,12.20
2019-02-26T16:55:17.230Z,12.97
2019-02-26T16:57:45.934Z,13.20
2019-02-26T17:00:16.342Z,10.80
2019-02-26T17:02:44.272Z,11.43
2019-02-26T17:05:15.023Z,12.30
2019-02-26T17:07:41.624Z,11.70
2019-02-26T17:10:11.204Z,11.80
2019-02-26T17:12:38.946Z,12.43
2019-02-26T17:15:11.542Z,10.37
2019-02-26T17:17:39.222Z,10.70
2019-02-26T17:20:07.576Z,9.47
2019-02-26T17:22:35.602Z,9.07
2019-02-26T17:25:03.446Z,11.07
2019-02-26T17:27:31.193Z,13.30
2019-02-26T17:29:58.976Z,12.80
2019-02-26T17:32:26.721Z,11.23
2019-02-26T17:34:55.779Z,17.07
2019-02-26T17:37:24.056Z,13.63
2019-02-26T17:39:51.805Z,10.00
2019-02-26T17:42:19.519Z,12.03
2019-02-26T17:44:47.183Z,12.10
2019-02-26T17:47:14.912Z,10.77
2019-02-26T17:49:42.945Z,15.30
2019-02-26T17:52:10.661Z,12.40
2019-02-26T17:54:38.551Z,11.17
2019-02-26T17:57:06.259Z,11.70
2019-02-26T17:59:34.023Z,14.30
2019-02-26T18:02:01.841Z,12.07
2019-02-26T18:04:29.563Z,10.97
2019-02-26T18:06:57.858Z,12.30
2019-02-26T18:09:34.428Z,13.33
2019-02-26T18:12:02.295Z,12.37
2019-02-26T18:14:29.607Z,12.07
2019-02-26T18:16:57.462Z,10.00
2019-02-26T18:19:25.224Z,10.63
2019-02-26T18:21:52.990Z,10.93
2019-02-26T18:24:20.712Z,16.17
2019-02-26T18:26:50.388Z,12.23
2019-02-26T18:29:18.034Z,11.17
2019-02-26T18:31:45.816Z,12.50
2019-02-26T18:34:14.032Z,11.97
2019-02-26T18:36:45.979Z,14.00
2019-02-26T18:39:13.966Z,14.43
2019-02-26T18:41:50.413Z,12.57
2019-02-26T18:44:11.270Z,10.67
2019-02-26T18:46:39.088Z,12.00
2019-02-26T18:49:06.905Z,13.27
2019-02-26T18:51:36.501Z,12.33
2019-02-26T18:54:04.220Z,14.00
2019-02-26T18:56:32.295Z,12.67
2019-02-26T18:58:59.994Z,17.33
2019-02-26T19:01:28.464Z,17.43
2019-02-26T19:03:57.291Z,17.83
2019-02-26T19:06:26.964Z,12.63
2019-02-26T19:08:54.540Z,12.47
2019-02-26T19:11:25.418Z,12.93
2019-02-26T19:13:51.767Z,17.73
2019-02-26T19:16:20.727Z,12.17
2019-02-26T19:18:49.695Z,15.30
2019-02-26T19:21:21.573Z,15.13
2019-02-26T19:23:46.863Z,13.50
2019-02-26T19:26:14.643Z,14.60
2019-02-26T19:28:42.413Z,13.00
2019-02-26T19:31:10.332Z,13.90
2019-02-26T19:33:38.242Z,13.67
2019-02-26T19:36:05.908Z,11.87
2019-02-26T19:38:33.664Z,15.93
2019-02-26T19:41:04.715Z,15.70
2019-02-26T19:43:32.450Z,17.10
2019-02-26T19:46:02.153Z,17.10
2019-02-26T19:48:30.941Z,15.30
2019-02-26T19:50:59.080Z,14.93
2019-02-26T19:53:26.886Z,14.17
2019-02-26T19:55:54.556Z,13.10
2019-02-26T19:58:22.260Z,15.33
2019-02-26T20:00:52.654Z,17.03
2019-02-26T20:03:19.409Z,16.90
2019-02-26T20:05:47.236Z,15.77
2019-02-26T20:08:15.055Z,17.33
2019-02-26T20:10:42.730Z,18.03
2019-02-26T20:13:12.765Z,17.10
2019-02-26T20:15:39.890Z,19.93
2019-02-26T20:18:07.605Z,16.47
2019-02-26T20:20:40.933Z,17.30
2019-02-26T20:23:06.364Z,16.07
2019-02-26T20:25:34.084Z,20.03
2019-02-26T20:28:05.343Z,17.20
2019-02-26T20:30:31.368Z,20.43
2019-02-26T20:32:59.067Z,15.60
2019-02-26T20:35:26.791Z,15.77
2019-02-26T20:37:58.557Z,15.37
2019-02-26T20:40:24.488Z,16.10
2019-02-26T20:42:52.365Z,23.40
2019-02-26T20:45:20.120Z,15.43
2019-02-26T20:47:47.906Z,16.27
2019-02-26T20:50:20.004Z,16.00
2019-02-26T20:52:45.083Z,18.00
2019-02-26T20:55:16.729Z,16.00
2019-02-26T20:57:44.040Z,16.93
2019-02-26T21:00:16.204Z,19.10
2019-02-26T21:02:43.856Z,16.93
2019-02-26T21:05:13.745Z,18.27
2019-02-26T21:07:41.520Z,24.10
2019-02-26T21:10:10.126Z,27.57
2019-02-26T21:12:37.953Z,28.80
2019-02-26T21:15:08.117Z,33.57
2019-02-26T21:17:35.790Z,34.07
2019-02-26T21:20:07.543Z,27.40
2019-02-26T21:22:33.387Z,29.90
2019-02-26T21:25:01.131Z,25.93
2019-02-26T21:27:28.917Z,29.63
2019-02-26T21:29:56.688Z,26.53
2019-02-26T21:32:25.638Z,25.33
2019-02-26T21:34:53.878Z,21.63
2019-02-26T21:37:21.575Z,24.43
2019-02-26T21:39:49.321Z,22.77
2019-02-26T21:42:17.016Z,25.63
2019-02-26T21:44:44.747Z,24.03
2019-02-26T21:47:12.476Z,25.63
2019-02-26T21:49:40.950Z,22.20
2019-02-26T21:52:09.472Z,26.17
2019-02-26T21:54:37.292Z,19.80
2019-02-26T21:57:05.011Z,23.03
2019-02-26T21:59:33.302Z,21.53
2019-02-26T22:02:01.092Z,22.83
2019-02-26T22:04:31.693Z,22.57
2019-02-26T22:06:58.443Z,19.87
2019-02-26T22:09:29.892Z,23.50
2019-02-26T22:11:55.699Z,22.97
2019-02-26T22:14:23.367Z,21.97
2019-02-26T22:16:51.395Z,21.97
2019-02-26T22:19:19.914Z,19.43
2019-02-26T22:21:52.154Z,24.40
2019-02-26T22:24:20.559Z,24.20
2019-02-26T22:26:48.328Z,25.17
2019-02-26T22:29:16.080Z,24.93
2019-02-26T22:31:43.920Z,25.63
2019-02-26T22:34:12.078Z,24.77
2019-02-26T22:36:39.823Z,22.60
2019-02-26T22:39:11.801Z,23.60
2019-02-26T22:41:39.529Z,24.00
2019-02-26T22:44:07.238Z,24.43
2019-02-26T22:46:34.985Z,22.67
2019-02-26T22:49:02.734Z,22.60
2019-02-26T22:51:30.463Z,25.23
2019-02-26T22:53:58.190Z,20.63
2019-02-26T22:56:25.943Z,22.70
2019-02-26T22:58:53.639Z,20.73
2019-02-26T23:01:36.345Z,21.23
2019-02-26T23:04:02.578Z,23.47
2019-02-26T23:06:31.719Z,23.00
2019-02-26T23:08:59.778Z,20.80
2019-02-26T23:11:31.700Z,21.40
2019-02-26T23:13:57.016Z,20.47
2019-02-26T23:16:24.851Z,23.07
2019-02-26T23:18:52.850Z,22.90
2019-02-26T23:21:20.664Z,20.40
2019-02-26T23:23:48.417Z,21.77
2019-02-26T23:26:16.139Z,21.40
2019-02-26T23:28:43.937Z,22.87
2019-02-26T23:31:11.634Z,20.17
2019-02-26T23:33:40.865Z,23.00
2019-02-26T23:36:09.265Z,21.53
2019-02-26T23:38:37.027Z,21.93
2019-02-26T23:41:04.769Z,21.70
2019-02-26T23:43:32.419Z,23.87
2019-02-26T23:46:00.143Z,22.37
2019-02-26T23:48:27.802Z,22.57
2019-02-26T23:50:55.525Z,24.10
2019-02-26T23:53:23.198Z,21.57
2019-02-26T23:55:50.950Z,22.03
2019-02-26T23:58:18.626Z,19.77
